createdAt,value
2023-02-26T00:01:40.581Z,10.20
2023-02-26T00:04:09.434Z,8.00
2023-02-26T00:06:53.351Z,8.85
2023-02-26T00:09:23.075Z,11.73
2023-02-26T00:11:50.826Z,11.98
2023-02-26T00:14:18.894Z,10.15
2023-02-26T00:17:09.539Z,11.15
2023-02-26T00:19:37.442Z,11.65
2023-02-26T00:22:05.235Z,10.27
2023-02-26T00:24:33.618Z,12.25
2023-02-26T00:27:01.306Z,10.48
2023-02-26T00:29:29.049Z,9.98
2023-02-26T00:31:56.940Z,7.10
2023-02-26T00:34:24.892Z,10.50
2023-02-26T00:37:16.830Z,13.25
2023-02-26T00:40:10.163Z,8.18
2023-02-26T00:42:37.864Z,9.70
2023-02-26T00:45:06.113Z,9.43
2023-02-26T00:47:39.730Z,11.85
2023-02-26T00:50:16.183Z,14.43
2023-02-26T00:53:08.025Z,9.43
2023-02-26T00:55:35.499Z,12.25
2023-02-26T00:58:03.011Z,17.27
2023-02-26T01:00:30.752Z,14.63
2023-02-26T01:02:58.813Z,10.20
2023-02-26T01:05:27.079Z,12.55
2023-02-26T01:08:15.593Z,9.05
2023-02-26T01:10:43.448Z,10.65
2023-02-26T01:13:11.066Z,9.23
2023-02-26T01:15:39.651Z,8.80
2023-02-26T01:18:14.873Z,8.07
2023-02-26T01:20:49.472Z,11.40
2023-02-26T01:23:24.821Z,11.75
2023-02-26T01:26:07.446Z,11.13
2023-02-26T01:28:35.239Z,9.37
2023-02-26T01:31:05.863Z,15.80
2023-02-26T01:33:44.871Z,9.13
2023-02-26T01:36:28.374Z,12.45
2023-02-26T01:39:11.918Z,10.50
2023-02-26T01:44:40.813Z,7.35
2023-02-26T01:47:17.449Z,12.07
2023-02-26T01:49:45.308Z,8.60
2023-02-26T01:52:49.599Z,13.57
2023-02-26T01:55:23.730Z,11.25
2023-02-26T01:57:54.700Z,11.63
2023-02-26T02:00:22.668Z,13.38
2023-02-26T02:02:51.226Z,10.48
2023-02-26T02:05:27.655Z,13.15
2023-02-26T02:07:56.921Z,13.35
2023-02-26T02:10:24.414Z,7.20
2023-02-26T02:13:14.581Z,7.82
2023-02-26T02:15:45.383Z,8.30
2023-02-26T02:18:29.132Z,11.32
2023-02-26T02:21:05.288Z,11.07
2023-02-26T02:23:53.529Z,13.95
2023-02-26T02:26:41.635Z,7.93
2023-02-26T02:29:12.003Z,8.70
2023-02-26T02:31:48.806Z,11.20
2023-02-26T02:34:26.108Z,14.70
2023-02-26T02:36:59.510Z,5.70
2023-02-26T02:39:35.198Z,9.57
2023-02-26T02:42:15.181Z,11.95
2023-02-26T02:44:52.155Z,10.85
2023-02-26T02:47:23.064Z,9.35
2023-02-26T02:50:12.304Z,12.80
2023-02-26T02:52:54.513Z,12.00
2023-02-26T02:55:27.010Z,9.70
2023-02-26T02:58:01.355Z,8.38
2023-02-26T03:00:33.182Z,5.40
2023-02-26T03:03:28.446Z,18.02
2023-02-26T03:05:56.176Z,8.02
2023-02-26T03:08:30.334Z,8.68
2023-02-26T03:10:58.415Z,5.40
2023-02-26T03:13:26.683Z,10.40
2023-02-26T03:16:22.000Z,5.25
2023-02-26T03:19:18.230Z,7.20
2023-02-26T03:22:23.700Z,7.03
2023-02-26T03:25:13.262Z,7.20
2023-02-26T03:27:57.548Z,9.13
2023-02-26T03:30:41.005Z,10.30
2023-02-26T03:36:03.871Z,7.25
2023-02-26T03:38:48.465Z,7.75
2023-02-26T03:41:22.930Z,10.52
2023-02-26T03:43:59.055Z,12.52
2023-02-26T03:46:41.695Z,6.93
2023-02-26T03:49:24.497Z,13.07
2023-02-26T03:51:53.255Z,10.13
2023-02-26T03:54:30.996Z,11.02
2023-02-26T03:56:58.687Z,7.03
2023-02-26T03:59:26.202Z,7.18
2023-02-26T04:02:05.663Z,5.65
2023-02-26T04:04:33.295Z,6.20
2023-02-26T04:07:02.294Z,8.73
2023-02-26T04:09:30.285Z,5.40
2023-02-26T04:11:59.195Z,5.75
2023-02-26T04:14:26.654Z,5.30
2023-02-26T04:16:54.336Z,6.85
2023-02-26T04:19:21.802Z,5.15
2023-02-26T04:21:49.426Z,6.63
2023-02-26T04:24:17.247Z,9.48
2023-02-26T04:26:44.724Z,8.32
2023-02-26T04:29:12.294Z,5.25
2023-02-26T04:31:40.243Z,7.90
2023-02-26T04:34:07.764Z,7.28
2023-02-26T04:36:35.234Z,6.53
2023-02-26T04:39:02.927Z,6.93
2023-02-26T04:41:30.553Z,5.43
2023-02-26T04:43:58.106Z,8.85
2023-02-26T04:46:26.151Z,7.80
2023-02-26T04:48:54.165Z,8.07
2023-02-26T04:51:21.679Z,8.30
2023-02-26T04:53:49.269Z,8.20
2023-02-26T04:56:16.896Z,4.32
2023-02-26T04:58:44.301Z,4.68
2023-02-26T05:01:14.006Z,5.10
2023-02-26T05:03:41.411Z,5.97
2023-02-26T05:06:09.163Z,7.78
2023-02-26T05:08:36.699Z,8.32
2023-02-26T05:11:04.172Z,7.65
2023-02-26T05:13:31.602Z,5.40
2023-02-26T05:15:59.081Z,8.05
2023-02-26T05:18:26.524Z,5.65
2023-02-26T05:20:55.672Z,5.55
2023-02-26T05:23:23.473Z,5.25
2023-02-26T05:25:51.276Z,5.47
2023-02-26T05:28:18.756Z,4.78
2023-02-26T05:30:46.319Z,4.47
2023-02-26T05:33:13.831Z,5.63
2023-02-26T05:35:41.475Z,9.25
2023-02-26T05:38:08.942Z,4.10
2023-02-26T05:40:36.381Z,5.03
2023-02-26T05:43:04.013Z,6.55
2023-02-26T05:45:31.511Z,10.82
2023-02-26T05:47:59.052Z,8.90
2023-02-26T05:50:27.355Z,7.28
2023-02-26T05:52:54.879Z,5.68
2023-02-26T05:55:22.358Z,7.03
2023-02-26T05:57:49.800Z,3.80
2023-02-26T06:00:17.820Z,6.60
2023-02-26T06:02:45.261Z,3.63
2023-02-26T06:05:12.760Z,7.35
2023-02-26T06:07:40.388Z,5.40
2023-02-26T06:10:09.330Z,6.15
2023-02-26T06:12:37.447Z,4.95
2023-02-26T06:15:05.789Z,5.40
2023-02-26T06:17:33.538Z,6.15
2023-02-26T06:20:01.023Z,3.42
2023-02-26T06:22:28.626Z,7.63
2023-02-26T06:24:56.284Z,10.38
2023-02-26T06:27:24.416Z,3.30
2023-02-26T06:29:51.899Z,9.18
2023-02-26T06:32:19.416Z,4.72
2023-02-26T06:34:46.900Z,4.07
2023-02-26T06:37:14.921Z,8.25
2023-02-26T06:39:42.581Z,11.40
2023-02-26T06:42:10.066Z,4.70
2023-02-26T06:44:37.613Z,7.35
2023-02-26T06:47:05.232Z,4.65
2023-02-26T06:49:32.702Z,4.72
2023-02-26T06:52:00.373Z,3.70
2023-02-26T06:54:27.824Z,7.20
2023-02-26T06:56:57.848Z,3.30
2023-02-26T06:59:25.383Z,8.93
2023-02-26T07:01:52.855Z,6.30
2023-02-26T07:04:20.817Z,6.53
2023-02-26T07:06:48.354Z,3.15
2023-02-26T07:09:15.769Z,3.25
2023-02-26T07:11:43.240Z,4.00
2023-02-26T07:14:10.721Z,8.50
2023-02-26T07:16:38.152Z,11.55
2023-02-26T07:19:05.600Z,4.20
2023-02-26T07:21:33.490Z,4.60
2023-02-26T07:24:01.182Z,3.67
2023-02-26T07:26:28.831Z,4.43
2023-02-26T07:28:56.338Z,5.90
2023-02-26T07:31:24.259Z,9.93
2023-02-26T07:33:51.786Z,5.47
2023-02-26T07:36:19.543Z,5.10
2023-02-26T07:38:46.951Z,11.75
2023-02-26T07:41:14.512Z,4.95
2023-02-26T07:43:42.833Z,2.50
2023-02-26T07:46:10.409Z,4.18
2023-02-26T07:48:37.977Z,5.40
2023-02-26T07:51:08.004Z,4.47
2023-02-26T07:53:35.807Z,3.25
2023-02-26T07:56:03.809Z,3.22
2023-02-26T07:58:31.397Z,5.32
2023-02-26T08:00:59.104Z,5.18
2023-02-26T08:03:26.533Z,3.03
2023-02-26T08:05:54.018Z,2.67
2023-02-26T08:08:21.442Z,3.70
2023-02-26T08:10:48.870Z,4.50
2023-02-26T08:13:16.392Z,4.32
2023-02-26T08:15:44.245Z,3.60
2023-02-26T08:18:12.467Z,9.40
2023-02-26T08:20:40.353Z,2.30
2023-02-26T08:23:07.757Z,2.85
2023-02-26T08:25:35.311Z,7.45
2023-02-26T08:28:03.676Z,4.60
2023-02-26T08:30:31.127Z,7.53
2023-02-26T08:32:58.687Z,6.70
2023-02-26T08:35:26.295Z,4.28
2023-02-26T08:37:54.629Z,5.32
2023-02-26T08:40:22.288Z,3.38
2023-02-26T08:42:49.944Z,4.30
2023-02-26T08:45:17.598Z,7.85
2023-02-26T08:47:56.065Z,2.03
2023-02-26T08:50:25.736Z,1.55
2023-02-26T08:52:53.708Z,2.72
2023-02-26T08:55:21.893Z,3.03
2023-02-26T08:57:49.416Z,2.40
2023-02-26T09:00:18.764Z,3.47
2023-02-26T09:02:46.680Z,5.85
2023-02-26T09:05:15.186Z,2.38
2023-02-26T09:07:43.489Z,3.78
2023-02-26T09:10:12.229Z,2.50
2023-02-26T09:12:39.857Z,2.08
2023-02-26T09:15:08.981Z,2.65
2023-02-26T09:17:36.992Z,1.15
2023-02-26T09:20:05.925Z,4.35
2023-02-26T09:22:33.772Z,3.03
2023-02-26T09:25:01.703Z,5.20
2023-02-26T09:27:29.293Z,4.63
2023-02-26T09:29:56.929Z,2.63
2023-02-26T09:32:26.490Z,3.90
2023-02-26T09:34:54.117Z,3.03
2023-02-26T09:37:21.708Z,7.70
2023-02-26T09:39:49.158Z,5.50
2023-02-26T09:42:37.478Z,2.88
2023-02-26T09:45:11.758Z,4.45
2023-02-26T09:47:51.049Z,1.85
2023-02-26T09:50:21.978Z,3.10
2023-02-26T09:53:12.281Z,3.10
2023-02-26T09:55:47.843Z,2.97
2023-02-26T09:58:29.813Z,2.90
2023-02-26T10:01:34.718Z,3.20
2023-02-26T10:04:25.496Z,5.57
2023-02-26T10:07:16.925Z,1.95
2023-02-26T10:09:59.457Z,2.42
2023-02-26T10:12:30.255Z,3.70
2023-02-26T10:15:14.581Z,5.43
2023-02-26T10:18:00.750Z,1.90
2023-02-26T10:20:32.770Z,2.28
2023-02-26T10:23:38.947Z,1.60
2023-02-26T10:26:17.942Z,0.88
2023-02-26T10:29:15.087Z,1.38
2023-02-26T10:32:01.400Z,1.63
2023-02-26T10:34:53.092Z,1.98
2023-02-26T10:37:39.283Z,0.93
2023-02-26T10:40:37.005Z,1.75
2023-02-26T10:43:25.143Z,1.17
2023-02-26T10:46:11.665Z,1.42
2023-02-26T10:49:02.020Z,0.90
2023-02-26T10:51:35.729Z,1.20
2023-02-26T10:54:21.087Z,2.85
2023-02-26T10:56:49.579Z,0.75
2023-02-26T10:59:17.374Z,5.28
2023-02-26T11:01:46.142Z,0.75
2023-02-26T11:04:18.295Z,0.30
2023-02-26T11:06:49.073Z,5.47
2023-02-26T11:09:39.597Z,1.13
2023-02-26T11:12:13.003Z,3.15
2023-02-26T11:17:19.961Z,2.42
2023-02-26T11:19:59.372Z,0.90
2023-02-26T11:22:32.392Z,0.60
2023-02-26T11:25:00.772Z,0.82
2023-02-26T11:27:35.681Z,1.33
2023-02-26T11:30:18.762Z,2.08
2023-02-26T11:32:52.448Z,0.68
2023-02-26T11:35:24.708Z,0.57
2023-02-26T11:38:00.165Z,2.08
2023-02-26T11:40:42.547Z,2.42
2023-02-26T11:43:20.564Z,0.85
2023-02-26T11:46:00.916Z,0.73
2023-02-26T11:48:38.965Z,1.48
2023-02-26T11:51:08.871Z,3.10
2023-02-26T11:53:42.586Z,0.60
2023-02-26T11:56:13.863Z,2.13
2023-02-26T11:58:46.501Z,2.08
2023-02-26T12:01:19.428Z,2.13
2023-02-26T12:03:51.391Z,1.30
2023-02-26T12:06:21.532Z,2.40
2023-02-26T12:08:49.460Z,3.22
2023-02-26T12:11:35.273Z,2.75
2023-02-26T12:14:20.801Z,3.75
2023-02-26T12:17:22.074Z,1.15
2023-02-26T12:19:54.766Z,2.10
2023-02-26T12:22:56.519Z,2.05
2023-02-26T12:25:40.024Z,2.10
2023-02-26T12:28:23.725Z,9.00
2023-02-26T12:34:01.428Z,0.73
2023-02-26T12:37:09.961Z,1.45
2023-02-26T12:39:54.655Z,1.85
2023-02-26T12:43:05.038Z,1.13
2023-02-26T12:46:02.079Z,0.98
2023-02-26T12:48:47.707Z,1.02
2023-02-26T12:51:37.058Z,0.40
2023-02-26T12:54:10.304Z,2.55
2023-02-26T12:57:13.827Z,1.65
2023-02-26T13:00:01.187Z,4.82
2023-02-26T13:02:46.508Z,1.02
2023-02-26T13:05:26.261Z,2.42
2023-02-26T13:08:14.907Z,2.63
2023-02-26T13:11:02.919Z,1.95
2023-02-26T13:13:36.546Z,1.08
2023-02-26T13:16:25.188Z,0.80
2023-02-26T13:19:26.247Z,1.33
2023-02-26T13:22:17.416Z,0.30
2023-02-26T13:25:16.553Z,0.90
2023-02-26T13:27:45.352Z,1.38
2023-02-26T13:30:21.910Z,1.23
2023-02-26T13:32:53.430Z,2.38
2023-02-26T13:35:31.975Z,0.50
2023-02-26T13:38:03.167Z,1.38
2023-02-26T13:40:30.982Z,1.75
2023-02-26T13:43:20.970Z,0.93
2023-02-26T13:46:21.357Z,1.90
2023-02-26T13:49:27.202Z,0.95
2023-02-26T13:51:55.475Z,2.20
2023-02-26T13:54:35.533Z,2.58
2023-02-26T13:57:07.851Z,1.08
2023-02-26T13:59:52.889Z,0.40
2023-02-26T14:02:20.333Z,2.05
2023-02-26T14:04:58.231Z,0.77
2023-02-26T14:08:07.982Z,0.45
2023-02-26T14:10:47.409Z,0.60
2023-02-26T14:13:18.912Z,2.70
2023-02-26T14:15:49.530Z,2.08
2023-02-26T14:18:27.160Z,1.05
2023-02-26T14:21:40.613Z,1.08
2023-02-26T14:24:16.485Z,1.08
2023-02-26T14:26:47.598Z,1.20
2023-02-26T14:29:23.042Z,1.38
2023-02-26T14:31:51.562Z,1.15
2023-02-26T14:34:23.875Z,0.93
2023-02-26T14:36:58.417Z,0.40
2023-02-26T14:39:30.740Z,1.77
2023-02-26T14:42:05.080Z,1.38
2023-02-26T14:44:41.295Z,2.22
2023-02-26T14:47:10.674Z,1.95
2023-02-26T14:49:41.537Z,2.15
2023-02-26T14:52:36.621Z,1.67
2023-02-26T14:55:30.427Z,15.57
2023-02-26T14:58:12.676Z,3.78
2023-02-26T15:01:22.893Z,5.70
2023-02-26T15:03:56.761Z,1.63
2023-02-26T15:06:39.672Z,3.00
2023-02-26T15:09:46.230Z,1.07
2023-02-26T15:12:19.459Z,1.80
2023-02-26T15:14:57.117Z,1.13
2023-02-26T15:17:37.505Z,5.35
2023-02-26T15:20:08.842Z,1.25
2023-02-26T15:22:59.298Z,1.17
2023-02-26T15:25:36.432Z,1.13
2023-02-26T15:28:06.978Z,2.88
2023-02-26T15:30:35.273Z,1.63
2023-02-26T15:33:07.731Z,7.13
2023-02-26T15:35:35.471Z,2.92
2023-02-26T15:38:04.309Z,3.22
2023-02-26T15:40:35.514Z,3.45
2023-02-26T15:43:05.302Z,0.70
2023-02-26T15:45:41.566Z,1.02
2023-02-26T15:48:14.504Z,2.70
2023-02-26T15:50:44.982Z,1.83
2023-02-26T15:53:19.462Z,1.08
2023-02-26T15:55:53.844Z,1.95
2023-02-26T15:58:30.900Z,0.45
2023-02-26T16:01:01.854Z,1.50
2023-02-26T16:03:33.169Z,2.33
2023-02-26T16:06:01.137Z,1.60
2023-02-26T16:08:29.285Z,3.88
2023-02-26T16:10:59.847Z,1.65
2023-02-26T16:13:37.937Z,1.45
2023-02-26T16:16:37.162Z,0.77
2023-02-26T16:19:04.868Z,1.42
2023-02-26T16:21:36.967Z,0.82
2023-02-26T16:24:07.319Z,1.10
2023-02-26T16:26:40.076Z,0.85
2023-02-26T16:29:21.100Z,1.95
2023-02-26T16:31:53.101Z,1.77
2023-02-26T16:34:43.416Z,2.30
2023-02-26T16:37:32.166Z,1.27
2023-02-26T16:40:05.812Z,2.20
2023-02-26T16:42:44.145Z,1.25
2023-02-26T16:45:20.719Z,2.17
2023-02-26T16:47:55.999Z,2.92
2023-02-26T16:50:28.836Z,5.85
2023-02-26T16:53:07.988Z,3.55
2023-02-26T16:55:37.860Z,2.25
2023-02-26T16:58:09.208Z,5.63
2023-02-26T17:00:38.930Z,2.55
2023-02-26T17:03:14.562Z,2.75
2023-02-26T17:05:53.323Z,2.78
2023-02-26T17:08:26.354Z,4.70
2023-02-26T17:11:20.482Z,2.05
2023-02-26T17:14:03.704Z,6.07
2023-02-26T17:16:31.201Z,2.22
2023-02-26T17:18:58.920Z,3.90
2023-02-26T17:21:26.705Z,4.88
2023-02-26T17:23:54.797Z,4.07
2023-02-26T17:26:23.550Z,3.08
2023-02-26T17:28:51.354Z,2.80
2023-02-26T17:31:19.346Z,4.03
2023-02-26T17:33:47.047Z,2.67
2023-02-26T17:36:18.746Z,7.65
2023-02-26T17:38:47.840Z,6.45
2023-02-26T17:41:17.983Z,4.30
2023-02-26T17:43:45.496Z,2.85
2023-02-26T17:46:13.651Z,3.17
2023-02-26T17:48:41.200Z,5.60
2023-02-26T17:51:09.935Z,5.88
2023-02-26T17:53:41.153Z,3.53
2023-02-26T17:56:39.039Z,3.10
2023-02-26T17:59:07.310Z,4.55
2023-02-26T18:01:34.883Z,4.18
2023-02-26T18:04:35.139Z,4.22
2023-02-26T18:07:02.677Z,5.65
2023-02-26T18:09:30.081Z,2.45
2023-02-26T18:11:57.525Z,4.18
2023-02-26T18:14:24.893Z,2.83
2023-02-26T18:16:52.623Z,2.75
2023-02-26T18:19:20.210Z,5.70
2023-02-26T18:21:47.595Z,4.68
2023-02-26T18:24:15.063Z,3.42
2023-02-26T18:26:42.566Z,3.42
2023-02-26T18:29:11.397Z,8.70
2023-02-26T18:31:39.321Z,4.28
2023-02-26T18:34:07.141Z,5.60
2023-02-26T18:36:37.907Z,3.88
2023-02-26T18:39:08.704Z,4.88
2023-02-26T18:41:36.224Z,3.20
2023-02-26T18:44:03.671Z,3.72
2023-02-26T18:46:31.313Z,5.82
2023-02-26T18:48:58.848Z,5.30
2023-02-26T18:51:27.092Z,9.15
2023-02-26T18:53:55.104Z,5.15
2023-02-26T18:56:22.664Z,4.20
2023-02-26T18:58:50.205Z,3.00
2023-02-26T19:01:17.954Z,3.58
2023-02-26T19:03:45.348Z,4.18
2023-02-26T19:06:12.738Z,4.78
2023-02-26T19:08:40.173Z,5.22
2023-02-26T19:11:07.593Z,7.15
2023-02-26T19:13:35.016Z,8.23
2023-02-26T19:16:02.515Z,8.25
2023-02-26T19:18:30.408Z,7.88
2023-02-26T19:20:57.972Z,8.13
2023-02-26T19:23:25.810Z,8.85
2023-02-26T19:25:53.306Z,9.07
2023-02-26T19:28:20.851Z,10.65
2023-02-26T19:30:48.328Z,10.57
2023-02-26T19:33:20.351Z,10.45
2023-02-26T19:35:47.934Z,7.13
2023-02-26T19:38:15.687Z,9.02
2023-02-26T19:40:43.760Z,7.60
2023-02-26T19:43:11.182Z,6.10
2023-02-26T19:45:38.691Z,5.18
2023-02-26T19:48:06.695Z,6.15
2023-02-26T19:50:34.128Z,4.90
2023-02-26T19:53:03.912Z,6.43
2023-02-26T19:55:31.376Z,7.80
2023-02-26T19:57:58.866Z,11.18
2023-02-26T20:00:26.332Z,7.55
2023-02-26T20:02:53.870Z,6.38
2023-02-26T20:05:21.341Z,9.10
2023-02-26T20:07:48.891Z,7.47
2023-02-26T20:10:16.457Z,9.23
2023-02-26T20:12:45.304Z,5.25
2023-02-26T20:15:13.665Z,6.85
2023-02-26T20:17:41.114Z,8.07
2023-02-26T20:20:09.330Z,6.13
2023-02-26T20:22:36.781Z,8.48
2023-02-26T20:25:04.846Z,5.97
2023-02-26T20:27:32.891Z,4.43
2023-02-26T20:30:00.548Z,4.88
2023-02-26T20:32:28.202Z,7.43
2023-02-26T20:34:55.860Z,6.18
2023-02-26T20:37:23.427Z,4.28
2023-02-26T20:39:51.280Z,5.78
2023-02-26T20:42:18.834Z,3.50
2023-02-26T20:44:46.428Z,4.47
2023-02-26T20:47:13.871Z,4.13
2023-02-26T20:49:41.293Z,4.38
2023-02-26T20:52:08.891Z,7.60
2023-02-26T20:54:36.279Z,5.30
2023-02-26T20:57:03.790Z,5.97
2023-02-26T20:59:31.302Z,5.18
2023-02-26T21:01:58.872Z,9.13
2023-02-26T21:04:26.799Z,5.38
2023-02-26T21:06:55.475Z,7.15
2023-02-26T21:09:23.011Z,3.72
2023-02-26T21:11:52.517Z,3.90
2023-02-26T21:14:20.081Z,7.22
2023-02-26T21:16:47.600Z,8.27
2023-02-26T21:19:14.983Z,2.95
2023-02-26T21:21:42.461Z,5.68
2023-02-26T21:24:10.163Z,5.88
2023-02-26T21:26:37.721Z,3.88
2023-02-26T21:29:05.464Z,2.75
2023-02-26T21:31:33.493Z,5.97
2023-02-26T21:34:17.330Z,3.03
2023-02-26T21:36:48.390Z,4.10
2023-02-26T21:39:15.801Z,4.10
2023-02-26T21:41:43.759Z,7.97
2023-02-26T21:44:11.198Z,5.15
2023-02-26T21:46:38.574Z,10.63
2023-02-26T21:49:06.111Z,7.63
2023-02-26T21:51:33.571Z,7.60
2023-02-26T21:54:01.252Z,5.10
2023-02-26T21:56:28.837Z,6.63
2023-02-26T21:58:56.317Z,13.10
2023-02-26T22:01:23.864Z,8.00
2023-02-26T22:03:51.616Z,5.28
2023-02-26T22:06:19.371Z,4.65
2023-02-26T22:08:46.837Z,6.90
2023-02-26T22:11:14.480Z,5.82
2023-02-26T22:13:41.974Z,9.25
2023-02-26T22:16:09.880Z,4.82
2023-02-26T22:18:37.459Z,7.63
2023-02-26T22:21:05.109Z,10.00
2023-02-26T22:23:32.610Z,8.75
2023-02-26T22:26:00.104Z,6.13
2023-02-26T22:28:28.288Z,5.60
2023-02-26T22:30:56.420Z,7.05
2023-02-26T22:33:24.476Z,5.72
2023-02-26T22:35:55.574Z,5.97
2023-02-26T22:38:23.185Z,5.43
2023-02-26T22:40:50.564Z,5.72
2023-02-26T22:43:18.460Z,5.82
2023-02-26T22:45:46.180Z,4.88
2023-02-26T22:48:13.707Z,10.02
2023-02-26T22:50:42.757Z,8.38
2023-02-26T22:53:10.225Z,6.13
2023-02-26T22:55:37.721Z,7.70
2023-02-26T22:58:05.205Z,9.90
2023-02-26T23:00:32.729Z,8.75
2023-02-26T23:03:00.430Z,5.93
2023-02-26T23:05:29.266Z,3.95
2023-02-26T23:07:56.696Z,6.95
2023-02-26T23:10:24.163Z,3.58
2023-02-26T23:12:52.120Z,6.05
2023-02-26T23:15:19.668Z,5.78
2023-02-26T23:17:47.091Z,8.15
2023-02-26T23:20:15.085Z,4.63
2023-02-26T23:22:43.911Z,2.97
2023-02-26T23:25:12.260Z,4.88
2023-02-26T23:27:40.340Z,4.75
2023-02-26T23:30:08.445Z,5.03
2023-02-26T23:32:36.118Z,4.72
2023-02-26T23:35:04.586Z,4.05
2023-02-26T23:37:32.357Z,5.95
2023-02-26T23:40:00.180Z,3.08
2023-02-26T23:42:27.703Z,5.53
2023-02-26T23:44:55.182Z,4.72
2023-02-26T23:47:22.642Z,3.40
2023-02-26T23:49:50.187Z,5.47
2023-02-26T23:52:18.058Z,4.22
2023-02-26T23:54:45.563Z,3.65
2023-02-26T23:57:13.102Z,5.05
2023-02-26T23:59:40.469Z,4.57
